Samuelito — CUOK4 — position and weather

sailwx.info

Track history (hours):
 
Tides and Currents Weather Stations Pressure Air Temp Water Temp Dewpoint Dewpoint Depression Visibility Wind Speed Wind Dir Waves Ship Positions

Samuelito

Last reported at 2017-Oct-24 05:36 UTC. Time now 2017-Nov-17 17:58 UTC.
Position N 37°03' W 008°07'.
Warning: this ship's position is 24 days out of date.

Length 19 m.

Type: Fishing. MMSI: 263407870.

Date/timePositionNaut miles runAvg speedWind from/ knotsBaromVisibWave heightAir tempDewpointWater temp
2017-Oct-24 05:36N 37°03' W 008°07'2 9.0
2017-Oct-24 05:25N 37°02' W 008°08'2 4.0
2017-Oct-24 05:00N 36°60' W 008°08'0 0.3
2017-Oct-24 04:13N 37°00' W 008°08'0 0.3
2017-Oct-24 03:59N 37°00' W 008°08'0 0.2
2017-Oct-24 03:27N 37°00' W 008°08'0 0.1
2017-Oct-24 03:00N 37°00' W 008°08'0 0.1
2017-Oct-24 02:11N 37°00' W 008°08'0 0.2
2017-Oct-24 01:57N 37°00' W 008°08'0 0.4
2017-Oct-24 01:23N 37°00' W 008°08'1 4.0
2017-Oct-24 01:00N 36°60' W 008°10'1 2.4
2017-Oct-24 00:30N 37°00' W 008°09'1 2.3
2017-Oct-23 23:55N 36°59' W 008°08'1 1.8
2017-Oct-23 23:15N 37°00' W 008°07'2 7.2
2017-Oct-23 22:58N 37°02' W 008°07'1 0.0
2017-Oct-23 07:09N 37°03' W 008°07'2 9.2
2017-Oct-23 06:55N 37°01' W 008°08'4 8.7
2017-Oct-23 06:30N 36°58' W 008°10'2 4.7
2017-Oct-23 06:00N 36°59' W 008°08'0 0.2
2017-Oct-23 05:30N 36°59' W 008°08'0 0.3
2017-Oct-23 04:57N 36°59' W 008°08'0 0.4
2017-Oct-23 04:30N 36°60' W 008°08'0 0.1
2017-Oct-23 04:00N 36°60' W 008°08'0 0.3
2017-Oct-23 03:30N 36°60' W 008°08'0 0.2
2017-Oct-23 03:00N 36°60' W 008°08'0 0.3
2017-Oct-23 02:30N 36°60' W 008°08'0 0.2
2017-Oct-23 02:00N 36°60' W 008°08'2 0.0
2017-Oct-21 00:32N 36°60' W 008°06'1 8.4
2017-Oct-21 00:27N 36°60' W 008°07'2 5.2
2017-Oct-21 00:00N 36°59' W 008°09'2 4.6
2017-Oct-20 23:30N 37°01' W 008°09'3 0.1
2017-Oct-20 02:01N 36°59' W 008°07'0 0.6
2017-Oct-20 01:54N 36°59' W 008°07'0 0.2
2017-Oct-20 01:18N 36°59' W 008°07'0 0.3
2017-Oct-20 00:54N 36°59' W 008°07'  
Track history (hours):
 
Tides and Currents Weather Stations Pressure Air Temp Water Temp Dewpoint Dewpoint Depression Visibility Wind Speed Wind Dir Waves Ship Positions

Samuelito

Last reported at 2017-Oct-24 05:36 UTC. Time now 2017-Nov-17 17:58 UTC.
Position N 37°03' W 008°07'.
Warning: this ship's position is 24 days out of date.

Length 19 m.

Type: Fishing. MMSI: 263407870.

Date/timePositionNaut miles runAvg speedWind from/ knotsBaromVisibWave heightAir tempDewpointWater temp
2017-Oct-24 05:36N 37°03' W 008°07'2 9.0
2017-Oct-24 05:25N 37°02' W 008°08'2 4.0
2017-Oct-24 05:00N 36°60' W 008°08'0 0.3
2017-Oct-24 04:13N 37°00' W 008°08'0 0.3
2017-Oct-24 03:59N 37°00' W 008°08'0 0.2
2017-Oct-24 03:27N 37°00' W 008°08'0 0.1
2017-Oct-24 03:00N 37°00' W 008°08'0 0.1
2017-Oct-24 02:11N 37°00' W 008°08'0 0.2
2017-Oct-24 01:57N 37°00' W 008°08'0 0.4
2017-Oct-24 01:23N 37°00' W 008°08'1 4.0
2017-Oct-24 01:00N 36°60' W 008°10'1 2.4
2017-Oct-24 00:30N 37°00' W 008°09'1 2.3
2017-Oct-23 23:55N 36°59' W 008°08'1 1.8
2017-Oct-23 23:15N 37°00' W 008°07'2 7.2
2017-Oct-23 22:58N 37°02' W 008°07'1 0.0
2017-Oct-23 07:09N 37°03' W 008°07'2 9.2
2017-Oct-23 06:55N 37°01' W 008°08'4 8.7
2017-Oct-23 06:30N 36°58' W 008°10'2 4.7
2017-Oct-23 06:00N 36°59' W 008°08'0 0.2
2017-Oct-23 05:30N 36°59' W 008°08'0 0.3
2017-Oct-23 04:57N 36°59' W 008°08'0 0.4
2017-Oct-23 04:30N 36°60' W 008°08'0 0.1
2017-Oct-23 04:00N 36°60' W 008°08'0 0.3
2017-Oct-23 03:30N 36°60' W 008°08'0 0.2
2017-Oct-23 03:00N 36°60' W 008°08'0 0.3
2017-Oct-23 02:30N 36°60' W 008°08'0 0.2
2017-Oct-23 02:00N 36°60' W 008°08'2 0.0
2017-Oct-21 00:32N 36°60' W 008°06'1 8.4
2017-Oct-21 00:27N 36°60' W 008°07'2 5.2
2017-Oct-21 00:00N 36°59' W 008°09'2 4.6
2017-Oct-20 23:30N 37°01' W 008°09'3 0.1
2017-Oct-20 02:01N 36°59' W 008°07'0 0.6
2017-Oct-20 01:54N 36°59' W 008°07'0 0.2
2017-Oct-20 01:18N 36°59' W 008°07'0 0.3
2017-Oct-20 00:54N 36°59' W 008°07'  

Dump ship's entire track history